Time;durP1;ratioP1;P1;durP2;ratioP2;P2;SDS_P1;SDS_P2;PMS_P1;PMS_P2;Temp;Humidity;BMP_temperature;BMP_pressure;BME280_temperature;BME280_humidity;BME280_pressure;Samples;Min_cycle;Max_cycle;Signal;HPM_P1;HPM_P2
2021/06/29 05:13:58;;;;;;;15.32;6.10;;;20.60;99.90;;;21.69;84.18;100111.16;6281811;22;20069;-90
2021/06/29 05:17:22;;;;;;;7.20;5.28;;;20.40;99.90;;;21.84;84.56;100114.41;6138471;23;20124;-90
2021/06/29 05:20:12;;;;;;;8.10;5.97;;;20.40;99.90;;;21.92;84.17;100102.44;6235136;23;20004;-89
2021/06/29 05:23:36;;;;;;;9.88;6.40;;;20.40;99.90;;;21.88;84.42;100118.78;6217008;23;20049;-92
2021/06/29 05:35:25;;;;;;;7.88;6.70;;;20.60;99.90;;;22.06;83.94;100129.66;6194665;23;20019;-90
2021/06/29 05:38:18;;;;;;;7.72;7.00;;;20.70;99.90;;;22.09;83.23;100125.16;6189938;23;20071;-89
2021/06/29 05:40:46;;;;;;;7.97;6.80;;;20.70;99.90;;;22.03;83.13;100119.19;6221320;23;20116;-92
2021/06/29 05:43:12;;;;;;;8.70;7.72;;;20.70;99.90;;;21.92;83.61;100127.25;6261610;23;20008;-89
2021/06/29 05:46:04;;;;;;;10.13;8.38;;;20.60;99.90;;;21.71;84.43;100131.41;6244221;22;20004;-91
2021/06/29 05:49:19;;;;;;;11.68;9.30;;;20.60;99.90;;;21.70;84.01;100123.34;6267050;22;20022;-89
2021/06/29 05:51:50;;;;;;;9.48;8.32;;;20.40;99.90;;;21.82;83.98;100125.44;6232216;23;20012;-91
2021/06/29 05:54:47;;;;;;;11.68;8.90;;;20.50;99.90;;;21.72;84.31;100121.66;6260658;23;20004;-90
2021/06/29 05:57:18;;;;;;;10.13;8.13;;;20.50;99.90;;;21.96;83.54;100125.09;6244158;23;20019;-91
2021/06/29 06:30:57;;;;;;;11.90;6.32;;;22.70;99.90;;;24.86;68.62;100138.22;6276787;22;20016;-88
2021/06/29 06:33:23;;;;;;;8.85;5.53;;;23.20;99.90;;;25.05;66.67;100128.47;6277936;22;20011;-89
2021/06/29 06:35:49;;;;;;;8.40;5.63;;;23.40;99.90;;;25.49;65.73;100131.97;6279840;22;20019;-90
2021/06/29 06:38:16;;;;;;;6.32;5.07;;;23.70;99.90;;;25.67;63.34;100127.13;6281290;22;20046;-89
2021/06/29 06:40:42;;;;;;;5.93;5.22;;;24.00;99.90;;;26.09;62.03;100133.03;6298786;22;20019;-88
2021/06/29 06:43:09;;;;;;;7.55;4.70;;;24.20;99.90;;;25.35;64.52;100132.56;6248095;23;20019;-89
2021/06/29 06:45:38;;;;;;;6.28;4.90;;;23.80;99.90;;;25.10;64.46;100130.72;6248640;23;20075;-88
2021/06/29 06:48:05;;;;;;;5.90;5.30;;;23.50;99.90;;;24.96;65.62;100142.72;6247197;23;20334;-88
2021/06/29 06:50:31;;;;;;;6.18;5.47;;;23.40;99.90;;;24.78;65.77;100143.41;6247988;23;20004;-89
2021/06/29 06:52:57;;;;;;;9.55;5.30;;;23.30;99.90;;;24.77;64.96;100143.84;6248300;23;20015;-90
2021/06/29 06:55:26;;;;;;;6.93;5.22;;;23.40;99.90;;;24.04;67.29;100138.41;6247667;23;20422;-90
2021/06/29 06:57:57;;;;;;;5.55;5.05;;;22.90;99.90;;;23.70;68.21;100141.25;6247809;23;20101;-90
2021/06/29 07:00:26;;;;;;;6.25;5.75;;;22.50;99.90;;;23.19;70.00;100137.66;6247393;23;20008;-86
2021/06/29 07:02:54;;;;;;;6.32;5.60;;;22.10;99.90;;;23.39;70.65;100148.81;6248747;22;20109;-87
2021/06/29 07:05:27;;;;;;;5.50;4.88;;;22.00;99.90;;;23.70;69.63;100151.84;6272603;22;20390;-89
2021/06/29 07:07:53;;;;;;;8.50;5.93;;;22.20;99.90;;;23.94;68.64;100147.34;6248055;23;20012;-88
2021/06/29 07:10:19;;;;;;;6.10;5.50;;;22.40;99.90;;;24.14;67.74;100145.78;6246977;23;20011;-90
2021/06/29 07:12:45;;;;;;;7.70;5.22;;;22.60;99.90;;;24.29;68.10;100137.53;6248481;23;20028;-90
2021/06/29 07:15:11;;;;;;;7.38;5.80;;;22.60;99.90;;;24.14;68.60;100142.94;6247090;23;20011;-91
2021/06/29 07:17:41;;;;;;;8.82;6.57;;;22.60;99.90;;;24.00;70.09;100132.03;6248978;22;20004;-90
2021/06/29 07:20:14;;;;;;;9.77;7.25;;;22.50;99.90;;;23.74;72.02;100136.22;6248435;23;20035;-92
2021/06/29 07:22:47;;;;;;;7.95;7.20;;;22.30;99.90;;;24.04;70.03;100140.47;6248294;23;20446;-90
2021/06/29 07:25:13;;;;;;;9.07;8.18;;;22.40;99.90;;;24.02;68.47;100137.25;6247454;23;20004;-88
2021/06/29 07:27:40;;;;;;;10.55;7.88;;;22.40;99.90;;;23.76;68.95;100135.78;6249688;23;20031;-90
2021/06/29 07:30:09;;;;;;;9.73;8.73;;;22.30;99.90;;;23.80;68.60;100130.72;6248588;23;20043;-91
2021/06/29 07:32:36;;;;;;;11.30;9.52;;;22.30;99.90;;;23.88;68.85;100129.22;6249424;23;20084;-91
2021/06/29 07:35:06;;;;;;;8.80;7.97;;;22.40;99.90;;;24.34;68.16;100131.22;6250247;23;20008;-88
2021/06/29 07:37:35;;;;;;;9.93;8.05;;;22.60;99.90;;;24.57;67.37;100125.03;6250009;23;20011;-90
2021/06/29 07:40:03;;;;;;;9.40;8.40;;;22.80;99.90;;;24.19;67.91;100135.84;6250287;23;20090;-90
2021/06/29 07:42:29;;;;;;;9.63;8.68;;;22.80;99.90;;;23.98;68.83;100131.72;6252990;23;20031;-91
2021/06/29 07:44:55;;;;;;;11.75;8.52;;;22.70;99.90;;;24.14;69.42;100125.06;6249126;23;20014;-90
2021/06/29 07:47:20;;;;;;;11.07;8.90;;;22.70;99.90;;;24.60;67.39;100135.50;6247897;23;20377;-89
2021/06/29 07:49:46;;;;;;;10.10;9.10;;;22.80;99.90;;;24.69;66.83;100136.84;6246684;23;20107;-86
2021/06/29 07:52:12;;;;;;;12.65;10.10;;;22.90;99.90;;;24.65;67.45;100134.94;6246007;23;20000;-87
2021/06/29 07:54:38;;;;;;;11.52;9.40;;;23.10;99.90;;;25.10;66.20;100142.16;6245077;23;20012;-88
2021/06/29 07:57:05;;;;;;;12.65;10.50;;;23.30;99.90;;;25.40;64.80;100144.16;6244597;23;20035;-86
2021/06/29 07:59:30;;;;;;;12.43;9.63;;;23.50;99.90;;;25.07;66.28;100138.19;6246018;23;20008;-88
2021/06/29 08:01:56;;;;;;;10.80;8.88;;;23.40;99.90;;;24.97;66.22;100142.25;6245985;23;20023;-90
2021/06/29 08:04:22;;;;;;;7.50;6.50;;;23.20;99.90;;;24.50;66.69;100148.13;6274095;22;20196;-87
2021/06/29 08:06:48;;;;;;;7.82;6.47;;;23.00;99.90;;;24.33;66.63;100145.97;6246664;23;20015;-91
2021/06/29 08:09:14;;;;;;;8.43;5.97;;;22.90;99.90;;;24.26;67.83;100141.31;6246887;23;20016;-89
2021/06/29 08:11:40;;;;;;;8.63;5.93;;;22.80;99.90;;;24.63;66.26;100150.91;6248300;23;20005;-88
2021/06/29 08:14:06;;;;;;;6.93;5.72;;;22.90;99.90;;;24.58;67.02;100155.19;6249505;22;20011;-88
2021/06/29 08:16:33;;;;;;;9.52;6.07;;;22.90;99.90;;;24.82;65.16;100149.00;6273600;22;20008;-89
2021/06/29 08:18:59;;;;;;;7.00;6.00;;;23.10;99.90;;;24.49;67.25;100148.63;6253510;23;20032;-85
2021/06/29 08:21:27;;;;;;;7.53;5.60;;;23.00;99.90;;;24.55;66.31;100153.25;6269821;22;20031;-88
2021/06/29 08:23:54;;;;;;;9.13;6.00;;;22.90;99.90;;;24.37;67.37;100143.78;6260744;22;20031;-88
2021/06/29 08:26:22;;;;;;;6.90;6.20;;;22.80;99.90;;;23.85;69.31;100145.22;6252889;23;20008;-87
2021/06/29 08:28:51;;;;;;;7.15;5.68;;;22.50;99.90;;;23.71;70.13;100140.00;6248149;23;20027;-90
2021/06/29 08:31:21;;;;;;;6.63;5.90;;;22.30;99.90;;;23.96;69.79;100139.09;6248081;23;20012;-90
2021/06/29 08:33:48;;;;;;;7.47;6.25;;;22.30;99.90;;;23.66;69.88;100143.44;6247653;23;20008;-91
2021/06/29 08:36:17;;;;;;;6.63;5.80;;;22.20;99.90;;;23.88;69.04;100149.19;6247502;23;20018;-90
2021/06/29 08:38:46;;;;;;;9.50;7.15;;;22.20;99.90;;;24.03;68.09;100142.50;6248720;23;20087;-87
2021/06/29 08:41:19;;;;;;;7.55;6.60;;;22.40;99.90;;;24.01;67.83;100147.09;6249124;23;20024;-89
2021/06/29 08:43:50;;;;;;;7.50;5.82;;;22.50;99.90;;;24.10;67.87;100147.16;6247200;23;20092;-88
2021/06/29 08:46:16;;;;;;;7.18;6.18;;;22.50;99.90;;;23.88;68.71;100146.34;6247811;23;20005;-88
2021/06/29 08:48:42;;;;;;;8.73;6.22;;;22.40;99.90;;;23.52;70.14;100156.13;6274395;22;20019;-88
2021/06/29 08:51:11;;;;;;;6.53;5.82;;;22.30;99.90;;;23.86;70.07;100145.97;6247815;23;20004;-88
2021/06/29 08:53:37;;;;;;;7.32;5.78;;;22.30;99.90;;;24.34;66.67;100153.28;6250682;22;20036;-91
2021/06/29 08:56:04;;;;;;;7.15;5.32;;;22.60;99.90;;;24.68;66.07;100153.19;6249653;23;20066;-89
2021/06/29 08:58:34;;;;;;;7.53;4.68;;;23.10;99.90;;;25.23;64.58;100140.00;6250268;23;20008;-91
2021/06/29 09:01:05;;;;;;;6.20;4.35;;;23.40;99.90;;;24.93;64.77;100147.31;6249549;23;20008;-87
2021/06/29 09:03:36;;;;;;;7.07;3.97;;;23.40;99.90;;;25.33;63.12;100150.19;6250840;23;20100;-90
2021/06/29 09:06:07;;;;;;;5.95;4.22;;;23.50;99.90;;;25.59;62.81;100148.69;6250840;23;20413;-89
2021/06/29 09:09:00;;;;;;;5.88;4.25;;;23.80;99.90;;;26.27;59.71;100154.34;6251771;23;20035;-90
2021/06/29 09:11:37;;;;;;;3.67;3.38;;;24.40;99.90;;;27.02;57.86;100147.56;6251529;23;20000;-89
2021/06/29 09:14:09;;;;;;;6.70;3.33;;;25.00;99.90;;;27.86;54.94;100144.59;6251701;23;20004;-88
2021/06/29 09:16:38;;;;;;;4.38;2.70;;;25.80;99.90;;;28.43;54.23;100145.25;6250594;23;20066;-92
2021/06/29 09:19:10;;;;;;;3.10;2.45;;;26.30;99.90;;;28.87;52.43;100147.38;6249180;23;20323;-89
2021/06/29 09:21:42;;;;;;;6.47;2.88;;;26.60;99.90;;;28.11;53.26;100144.09;6250014;23;20004;-90
2021/06/29 09:24:09;;;;;;;3.15;2.75;;;26.50;99.90;;;27.46;52.71;100142.13;6250609;23;20008;-88
2021/06/29 09:26:40;;;;;;;5.78;2.47;;;26.10;99.90;;;27.11;52.42;100138.91;6249528;23;20004;-90
2021/06/29 09:29:09;;;;;;;4.15;2.30;;;25.70;99.90;;;27.23;54.18;100143.63;6250350;23;20040;-89
2021/06/29 09:31:43;;;;;;;5.63;3.08;;;25.70;99.90;;;26.92;55.62;100130.88;6250818;23;20004;-90
2021/06/29 09:34:12;;;;;;;3.63;2.50;;;25.50;99.90;;;27.49;54.70;100137.47;6250537;23;20111;-92
2021/06/29 09:36:46;;;;;;;4.20;2.60;;;25.70;99.90;;;28.00;52.24;100135.22;6252595;23;20012;-89
2021/06/29 09:39:14;;;;;;;3.08;2.75;;;25.90;99.90;;;27.26;54.04;100133.28;6250678;23;20012;-89
2021/06/29 09:41:42;;;;;;;3.42;2.80;;;25.70;99.90;;;26.42;57.01;100138.13;6255878;23;20028;-88
2021/06/29 09:44:12;;;;;;;5.97;3.05;;;25.30;99.90;;;26.50;57.37;100136.50;6254775;23;20022;-89
2021/06/29 09:46:41;;;;;;;3.60;2.70;;;25.10;99.90;;;26.75;57.23;100135.38;6254413;23;20009;-87
2021/06/29 09:49:15;;;;;;;4.97;3.28;;;25.00;99.90;;;25.93;59.75;100141.94;6256719;23;20133;-88
2021/06/29 09:51:53;;;;;;;5.07;3.60;;;24.60;99.90;;;26.19;59.85;100139.56;6256602;23;20012;-89
2021/06/29 09:54:22;;;;;;;4.93;4.05;;;24.60;99.90;;;26.17;59.44;100136.38;6255813;23;20020;-89
2021/06/29 09:56:48;;;;;;;6.22;4.65;;;24.60;99.90;;;26.48;58.60;100139.88;6256333;23;20222;-93
2021/06/29 09:59:24;;;;;;;5.85;4.43;;;24.70;99.90;;;26.30;60.04;100139.88;6256358;23;20008;-87
2021/06/29 10:02:11;;;;;;;8.52;7.38;;;24.70;99.90;;;26.48;58.11;100139.88;6256001;23;20408;-89
2021/06/29 10:04:40;;;;;;;16.63;10.15;;;24.80;99.90;;;25.84;60.36;100135.41;6259476;23;20019;-87
2021/06/29 10:07:18;;;;;;;11.73;8.95;;;24.50;99.90;;;25.83;60.31;100139.53;6280930;22;20385;-90
2021/06/29 10:09:44;;;;;;;11.75;9.98;;;24.30;99.90;;;25.67;61.66;100144.28;6252719;23;20157;-91
2021/06/29 10:12:11;;;;;;;13.80;10.40;;;24.20;99.90;;;26.00;61.37;100143.69;6253121;23;20014;-87
2021/06/29 10:14:38;;;;;;;12.55;9.70;;;24.20;99.90;;;26.13;59.80;100147.19;6252600;23;20008;-90
2021/06/29 10:17:09;;;;;;;14.05;9.90;;;24.30;99.90;;;26.24;60.30;100150.38;6254952;22;20004;-90
2021/06/29 10:22:22;;;;;;;12.55;8.98;;;24.60;99.90;;;26.64;59.24;100142.38;6255407;23;20035;-86
2021/06/29 10:24:48;;;;;;;18.75;10.82;;;24.70;99.90;;;26.70;59.42;100136.81;6254072;23;20008;-90
2021/06/29 10:27:15;;;;;;;16.20;12.35;;;24.80;99.90;;;26.67;58.31;100140.63;6253651;23;20004;-89
2021/06/29 10:29:42;;;;;;;14.07;10.25;;;24.90;99.90;;;27.00;57.92;100132.13;6252878;23;20112;-88
2021/06/29 10:32:13;;;;;;;13.25;9.57;;;25.10;99.90;;;27.95;56.51;100138.78;6252709;23;20008;-88
2021/06/29 10:34:40;;;;;;;13.63;10.25;;;25.60;99.90;;;28.38;52.78;100136.53;6270368;23;20000;-86
2021/06/29 10:37:07;;;;;;;11.38;10.18;;;26.30;99.90;;;28.85;51.69;100130.66;6261511;22;20016;-88
2021/06/29 10:39:36;;;;;;;13.68;11.80;;;26.80;99.90;;;29.26;49.94;100128.72;6252663;23;20040;-91
2021/06/29 10:42:09;;;;;;;12.93;9.73;;;27.20;99.90;;;30.25;49.61;100119.88;6253046;23;20012;-88
2021/06/29 10:44:45;;;;;;;16.25;11.50;;;27.80;99.90;;;30.31;47.07;100130.16;6252756;23;20015;-88
2021/06/29 10:47:39;;;;;;;12.57;10.18;;;28.10;99.90;;;30.08;48.92;100122.59;6252887;23;20001;-89
2021/06/29 10:50:14;;;;;;;14.98;12.05;;;28.00;99.90;;;29.55;48.59;100125.75;6248874;23;20018;-91
2021/06/29 10:52:45;;;;;;;11.95;10.18;;;27.70;99.90;;;29.70;49.99;100117.84;6251925;23;20004;-87
2021/06/29 10:57:06;;;;;;;;;;;;;;;;;;;;;
2021/06/29 11:04:11;;;;;;;13.43;11.88;;;27.00;99.90;;;28.03;52.25;100104.75;6049876;23;20032;-91
2021/06/29 11:06:46;;;;;;;12.77;10.68;;;26.30;99.90;;;27.77;53.34;100105.25;6134425;23;20010;-90
2021/06/29 11:09:21;;;;;;;11.07;10.00;;;25.90;99.90;;;28.25;53.12;100100.28;6124716;22;20014;-90
2021/06/29 11:12:25;;;;;;;12.23;10.23;;;26.40;99.90;;;29.49;50.16;100098.19;6255610;23;20015;-89
2021/06/29 11:14:59;;;;;;;12.07;9.63;;;27.20;99.90;;;30.02;48.47;100100.78;6254483;23;20004;-87
2021/06/29 11:17:47;;;;;;;11.30;9.85;;;27.70;99.90;;;29.02;49.75;100105.06;6253440;23;20008;-90
2021/06/29 11:20:45;;;;;;;10.95;9.88;;;27.30;99.90;;;29.76;48.92;100101.44;6253922;23;20016;-89
2021/06/29 11:23:33;;;;;;;10.75;9.65;;;27.60;99.90;;;30.03;45.41;100093.69;6254637;23;20030;-90
2021/06/29 11:26:19;;;;;;;10.68;8.88;;;27.80;99.90;;;30.38;45.79;100091.47;6256658;23;20016;-89
2021/06/29 11:28:59;;;;;;;12.10;8.60;;;28.30;99.90;;;31.10;46.14;100082.72;6263695;23;20008;-89
2021/06/29 11:31:32;;;;;;;8.15;7.35;;;28.70;99.90;;;31.57;44.15;100099.31;6262528;23;20015;-90
2021/06/29 11:34:12;;;;;;;10.80;9.70;;;29.20;97.70;;;30.69;43.80;100079.25;6264205;23;20024;-88
2021/06/29 11:36:50;;;;;;;10.38;8.57;;;29.00;92.30;;;31.18;44.59;100080.94;6264999;23;20063;-89
2021/06/29 11:39:16;;;;;;;8.57;7.68;;;29.10;95.80;;;30.65;43.67;100078.66;6263573;23;20009;-88
2021/06/29 11:42:10;;;;;;;8.98;8.07;;;28.70;91.80;;;30.10;45.42;100079.66;6253385;23;20410;-85
2021/06/29 11:44:48;;;;;;;9.48;8.23;;;28.10;94.00;;;30.23;45.52;100079.28;6250978;23;20018;-86
2021/06/29 11:47:21;;;;;;;9.93;8.18;;;28.10;97.00;;;30.24;46.11;100070.13;6251015;23;20004;-87
2021/06/29 11:49:57;;;;;;;14.73;13.10;;;28.00;99.10;;;29.85;47.08;100074.66;6251194;23;20023;-88
2021/06/29 11:52:35;;;;;;;15.95;12.77;;;27.80;99.90;;;29.04;49.17;100070.84;6250559;23;20468;-86
2021/06/29 11:55:19;;;;;;;17.08;13.50;;;27.30;99.90;;;28.49;50.35;100076.41;6249816;23;20004;-89
2021/06/29 11:57:56;;;;;;;17.95;14.73;;;26.80;99.90;;;27.55;53.42;100069.59;6252023;23;20046;-89
2021/06/29 12:00:31;;;;;;;15.00;12.75;;;26.10;99.90;;;27.57;53.65;100076.41;6252024;23;20341;-88
2021/06/29 12:03:09;;;;;;;15.70;14.13;;;25.80;99.90;;;27.77;52.83;100069.25;6254994;23;20038;-87
2021/06/29 12:05:38;;;;;;;14.43;12.85;;;25.80;99.90;;;27.51;53.53;100072.63;6253195;23;20004;-88
2021/06/29 12:08:08;;;;;;;17.38;15.27;;;25.70;99.90;;;27.38;53.51;100071.25;6251631;23;20004;-91
2021/06/29 12:10:41;;;;;;;18.92;15.50;;;25.60;99.90;;;27.72;52.23;100062.91;6249603;23;20000;-86
2021/06/29 12:13:12;;;;;;;14.98;13.48;;;25.90;99.90;;;28.70;52.20;100064.56;6250804;23;20008;-90
2021/06/29 12:15:59;;;;;;;20.00;16.25;;;26.40;99.90;;;29.56;47.50;100058.31;6249802;23;20027;-88
2021/06/29 12:18:29;;;;;;;19.75;17.63;;;27.10;99.90;;;29.47;47.12;100054.78;6250958;23;20340;-89
2021/06/29 12:21:02;;;;;;;18.67;16.05;;;27.30;99.90;;;29.59;47.65;100056.50;6252180;23;20004;-88
2021/06/29 12:23:35;;;;;;;16.95;15.13;;;27.40;99.90;;;29.58;46.91;100055.69;6252928;23;20000;-89
2021/06/29 12:26:07;;;;;;;14.95;13.30;;;27.50;99.90;;;29.86;47.15;100061.06;6253727;23;20008;-89
2021/06/29 12:28:38;;;;;;;17.88;13.18;;;27.60;99.90;;;29.56;47.54;100058.31;6255356;23;20005;-88
2021/06/29 15:53:13;;;;;;;13.05;9.98;;;27.00;89.20;;;29.06;45.31;99890.78;6246810;23;20039;-89
2021/06/29 15:56:01;;;;;;;;;;;;;;;;;;;;;
2021/06/29 15:58:50;;;;;;;;;;;;;;;;;;;;;
2021/06/29 16:01:26;;;;;;;12.88;9.32;;;27.00;88.60;;;29.33;44.29;99883.03;6245261;23;20102;-88
2021/06/29 16:04:43;;;;;;;;;;;;;;;;;;;;;
2021/06/29 17:24:47;;;;;;;;;;;;;;;;;;;;;
2021/06/29 18:05:04;;;;;;;;;;;;;;;;;;;;;
2021/06/29 18:32:55;;;;;;;10.93;9.82;;;23.50;99.90;;;25.08;61.18;99830.38;6277201;22;20027;-90
2021/06/29 18:35:22;;;;;;;14.93;11.25;;;23.40;99.90;;;24.96;61.33;99837.06;6312896;22;20034;-89
2021/06/29 18:37:49;;;;;;;12.95;10.77;;;23.30;99.90;;;24.87;61.96;99832.16;6298219;22;19999;-89
2021/06/29 18:40:15;;;;;;;9.43;8.48;;;23.20;99.90;;;24.82;62.07;99837.72;6297289;22;20023;-90
2021/06/29 18:42:46;;;;;;;12.85;10.00;;;23.20;99.90;;;24.75;62.44;99833.06;6282182;22;20069;-91
2021/06/29 18:45:19;;;;;;;10.50;9.40;;;23.10;99.90;;;24.75;62.46;99849.41;6307587;22;20027;-92
2021/06/29 18:47:46;;;;;;;13.13;10.25;;;23.10;99.90;;;24.64;63.04;99852.72;6306674;22;20012;-92
2021/06/29 18:50:13;;;;;;;10.57;9.48;;;23.00;99.90;;;24.57;63.12;99867.28;6307892;22;20030;-90
2021/06/29 18:52:43;;;;;;;10.50;9.40;;;22.90;99.90;;;24.39;63.23;99859.47;6307795;22;20007;-89
2021/06/29 18:55:16;;;;;;;9.68;8.75;;;22.80;99.90;;;24.33;63.77;99867.09;6305367;22;20372;-91
2021/06/29 18:57:44;;;;;;;9.23;6.70;;;22.70;99.90;;;23.72;64.37;99884.19;6280727;22;20464;-87
2021/06/29 19:00:18;;;;;;;13.57;9.50;;;22.50;99.90;;;23.46;65.46;99906.34;6305011;22;20014;-91
2021/06/29 19:02:45;;;;;;;12.43;8.90;;;22.10;99.90;;;23.07;66.59;99908.56;6304495;22;20448;-89
2021/06/29 19:05:13;;;;;;;9.15;7.10;;;21.80;99.90;;;22.80;67.53;99918.88;6277613;22;20007;-88
2021/06/29 19:07:41;;;;;;;9.82;6.53;;;21.40;99.90;;;22.00;71.29;99906.84;6303384;22;20008;-89
2021/06/29 19:10:11;;;;;;;9.35;7.18;;;21.00;99.90;;;21.43;72.52;99914.22;6306405;22;20003;-90
2021/06/29 19:12:38;;;;;;;8.80;6.43;;;20.50;99.90;;;20.96;74.99;99927.28;6280675;22;20179;-90
2021/06/29 19:15:13;;;;;;;7.88;6.15;;;20.10;99.90;;;20.66;77.03;99948.31;6281489;22;20003;-90
2021/06/29 19:17:40;;;;;;;9.60;6.55;;;19.70;99.90;;;20.22;79.84;99958.28;6281950;22;20023;-90
2021/06/29 19:20:15;;;;;;;11.00;7.15;;;19.40;99.90;;;19.99;83.78;99969.72;6314180;22;19996;-90
2021/06/29 19:22:44;;;;;;;9.85;7.32;;;19.00;99.90;;;19.76;88.69;99978.31;6288564;22;20053;-92
2021/06/29 19:25:14;;;;;;;12.25;6.60;;;18.80;99.90;;;19.77;88.35;99985.59;6284415;22;20012;-91
2021/06/29 19:27:42;;;;;;;13.30;7.18;;;18.60;99.90;;;19.09;94.26;100005.88;6284360;22;20007;-89
2021/06/29 19:30:12;;;;;;;8.32;3.35;;;18.30;99.90;;;18.67;91.27;100030.03;6279816;22;20007;-89
2021/06/29 19:32:41;;;;;;;7.40;3.80;;;17.80;99.90;;;18.24;92.53;100052.44;6283979;22;20008;-90
2021/06/29 19:35:09;;;;;;;11.63;4.05;;;17.40;99.90;;;18.17;95.49;100046.88;6307022;22;20082;-89
2021/06/29 19:37:36;;;;;;;10.07;4.40;;;17.10;99.90;;;18.15;96.92;100035.19;6284562;22;20042;-91
2021/06/29 19:40:04;;;;;;;8.65;3.95;;;17.00;99.90;;;17.99;96.34;100026.53;6293208;22;19995;-89
2021/06/29 19:42:30;;;;;;;4.97;2.83;;;16.80;99.90;;;17.83;97.30;100015.84;6285657;22;20008;-90
2021/06/29 19:44:56;;;;;;;6.82;3.22;;;16.70;99.90;;;17.66;99.82;100018.88;6291587;22;20004;-87
2021/06/29 19:47:23;;;;;;;9.05;4.25;;;16.50;99.90;;;17.52;100.00;100011.34;6285628;22;20038;-88
2021/06/29 19:49:50;;;;;;;5.95;4.00;;;16.50;99.90;;;17.58;100.00;100023.00;6286694;22;20011;-89
2021/06/29 19:52:16;;;;;;;5.32;3.83;;;16.40;99.90;;;17.54;100.00;100027.84;6287271;22;20000;-88
2021/06/29 19:54:42;;;;;;;7.70;3.90;;;16.30;99.90;;;17.63;100.00;100040.28;6314147;22;20004;-87
2021/06/29 19:57:08;;;;;;;6.45;4.30;;;16.30;99.90;;;17.71;100.00;100047.47;6285338;22;20031;-90
2021/06/29 19:59:34;;;;;;;6.13;4.78;;;16.30;99.90;;;17.75;100.00;100047.41;6314071;22;20408;-92
2021/06/29 20:02:00;;;;;;;6.97;5.10;;;16.40;99.90;;;17.79;100.00;100060.25;6290440;22;20118;-88
2021/06/29 20:04:29;;;;;;;6.63;5.22;;;16.40;99.90;;;17.82;100.00;100059.41;6287814;22;20015;-89
2021/06/29 20:06:55;;;;;;;6.93;5.18;;;16.40;99.90;;;17.78;100.00;100049.41;6309817;22;20058;-90
2021/06/29 20:09:42;;;;;;;7.72;4.93;;;16.40;99.90;;;17.84;100.00;100051.34;6312759;22;20034;-91
2021/06/29 20:12:19;;;;;;;6.03;4.25;;;16.50;99.90;;;17.76;100.00;100060.31;6285546;22;20023;-88
2021/06/29 20:14:57;;;;;;;6.40;4.00;;;16.50;99.90;;;17.75;100.00;100047.41;6283564;22;20003;-90
2021/06/29 20:17:36;;;;;;;7.15;4.72;;;16.50;99.90;;;17.60;100.00;100048.78;6310049;22;20018;-89
2021/06/29 20:20:20;;;;;;;5.28;4.32;;;16.40;99.90;;;17.68;100.00;100050.31;6313564;22;20018;-92
2021/06/29 20:22:47;;;;;;;6.55;3.55;;;16.40;99.90;;;17.71;100.00;100055.13;6286866;22;20312;-89
2021/06/29 20:25:14;;;;;;;4.55;3.33;;;16.40;99.90;;;17.51;100.00;100054.91;6306038;22;20391;-89
2021/06/29 20:27:41;;;;;;;5.45;3.20;;;16.30;99.90;;;17.54;100.00;100053.25;6279565;22;20007;-89
2021/06/29 20:30:11;;;;;;;3.92;3.22;;;16.30;99.90;;;17.63;100.00;100062.06;6279593;22;20046;-90
2021/06/29 20:32:41;;;;;;;6.03;3.10;;;16.30;99.90;;;17.65;100.00;100049.16;6277507;22;20073;-89
2021/06/29 20:35:08;;;;;;;5.13;3.38;;;16.30;99.90;;;17.58;100.00;100046.41;6277490;22;20030;-89
2021/06/29 20:37:35;;;;;;;4.20;3.35;;;16.30;99.90;;;17.56;100.00;100036.75;6304613;22;20353;-88
2021/06/29 20:40:01;;;;;;;4.82;3.13;;;16.30;99.90;;;17.54;100.00;100033.50;6304001;22;20007;-89
2021/06/29 20:42:27;;;;;;;5.40;3.58;;;16.30;99.90;;;17.62;100.00;100038.69;6277921;22;20043;-89
2021/06/29 20:44:53;;;;;;;4.85;3.22;;;16.20;99.90;;;17.60;100.00;100031.84;6277919;22;20348;-89
2021/06/29 20:47:19;;;;;;;4.78;3.83;;;16.30;99.90;;;17.48;100.00;100038.00;6307068;22;20012;-89
2021/06/29 20:49:45;;;;;;;6.20;4.70;;;16.20;99.90;;;17.52;100.00;100035.94;6313135;22;20004;-88
2021/06/29 20:52:12;;;;;;;7.43;4.60;;;16.20;99.90;;;17.57;100.00;100038.31;6290768;22;20007;-87
2021/06/29 20:54:41;;;;;;;6.20;4.32;;;16.20;99.90;;;17.68;100.00;100033.38;6314389;22;20004;-87
2021/06/29 20:57:10;;;;;;;6.60;4.93;;;16.30;99.90;;;17.76;100.00;100038.50;6296460;22;20002;-89
2021/06/29 20:59:38;;;;;;;6.10;4.90;;;16.40;99.90;;;17.62;100.00;100023.75;6328451;22;20084;-89
2021/06/29 21:02:07;;;;;;;7.93;5.78;;;16.30;99.90;;;17.64;100.00;100019.28;6286626;22;20008;-91
2021/06/29 21:04:42;;;;;;;10.00;5.68;;;16.40;99.90;;;17.59;100.00;100031.06;6310736;22;20434;-89
2021/06/29 21:07:08;;;;;;;7.40;5.72;;;16.40;99.90;;;17.55;100.00;100024.66;6307367;22;20011;-88
2021/06/29 21:09:40;;;;;;;9.82;6.78;;;16.40;99.90;;;17.51;100.00;100012.56;6279988;22;20068;-90
2021/06/29 21:12:09;;;;;;;10.05;7.80;;;16.40;99.90;;;17.62;100.00;100015.28;6280967;22;20031;-89
2021/06/29 21:14:42;;;;;;;10.02;7.03;;;16.40;99.90;;;17.64;100.00;100018.50;6283681;22;20380;-89
2021/06/29 21:17:15;;;;;;;10.15;6.57;;;16.50;99.90;;;17.76;100.00;100015.09;6279972;22;20011;-88
2021/06/29 21:19:44;;;;;;;10.20;7.80;;;16.40;99.90;;;17.70;100.00;100014.78;6282361;22;20398;-89
2021/06/29 21:22:10;;;;;;;11.23;8.00;;;16.50;99.90;;;17.58;100.00;100008.88;6306446;22;20107;-89
2021/06/29 21:24:38;;;;;;;9.82;7.25;;;16.50;99.90;;;17.69;100.00;100012.41;6281079;22;20126;-88
2021/06/29 21:27:07;;;;;;;11.50;7.30;;;16.50;99.90;;;17.76;100.00;100017.94;6281773;22;20000;-89
2021/06/29 21:29:33;;;;;;;11.90;8.35;;;16.50;99.90;;;17.70;100.00;100019.63;6299064;22;20018;-88
2021/06/29 21:32:02;;;;;;;11.30;7.78;;;16.60;99.90;;;17.87;100.00;100016.59;6282996;22;20433;-89
2021/06/29 21:34:28;;;;;;;8.27;6.60;;;16.60;99.90;;;17.92;100.00;100007.63;6281850;22;20212;-90
2021/06/29 21:36:54;;;;;;;8.98;6.43;;;16.60;99.90;;;18.01;100.00;100014.81;6280741;22;20485;-90
2021/06/29 21:39:23;;;;;;;10.25;6.95;;;16.60;99.90;;;18.01;100.00;100009.97;6283909;22;20405;-88
2021/06/29 21:41:49;;;;;;;8.45;5.68;;;16.70;99.90;;;18.07;100.00;100005.44;6306993;22;20376;-90
2021/06/29 21:44:16;;;;;;;7.78;5.43;;;16.70;99.90;;;18.01;100.00;99995.84;6307179;22;20011;-89
2021/06/29 21:46:42;;;;;;;9.80;5.80;;;16.80;99.90;;;18.04;100.00;100009.13;6282774;22;20007;-89
2021/06/29 21:49:08;;;;;;;7.88;5.32;;;16.70;99.90;;;18.08;100.00;100000.56;6308584;22;20015;-88
2021/06/29 21:51:35;;;;;;;7.28;5.30;;;16.70;99.90;;;18.06;100.00;100011.50;6305491;22;20010;-91
2021/06/29 21:54:02;;;;;;;5.72;4.65;;;16.70;99.90;;;17.95;100.00;100006.00;6281963;22;20082;-90
2021/06/29 21:56:29;;;;;;;7.35;5.20;;;16.70;99.90;;;17.82;100.00;99997.28;6282960;22;20011;-90
2021/06/29 21:58:55;;;;;;;7.05;4.63;;;16.70;99.90;;;17.99;100.00;100006.75;6279920;22;20007;-89
2021/06/29 22:01:23;;;;;;;6.25;4.57;;;16.70;99.90;;;17.92;100.00;100013.28;6305458;22;20014;-89
2021/06/29 22:03:49;;;;;;;6.57;4.80;;;16.70;99.90;;;17.91;100.00;100016.56;6279854;22;20008;-87
2021/06/29 22:06:15;;;;;;;5.45;4.75;;;16.70;99.90;;;17.95;100.00;100019.34;6286798;22;20095;-89
2021/06/29 22:08:42;;;;;;;6.57;5.45;;;16.60;99.90;;;17.87;100.00;100022.25;6294531;22;20031;-89
2021/06/29 22:11:11;;;;;;;6.50;5.60;;;16.60;99.90;;;17.89;100.00;100016.97;6316002;22;20091;-91
2021/06/29 22:13:38;;;;;;;6.18;4.88;;;16.60;99.90;;;17.73;100.00;100018.78;6294229;22;20018;-89
2021/06/29 22:16:05;;;;;;;6.53;5.68;;;16.50;99.90;;;17.60;100.00;100024.19;6291513;22;20004;-89
2021/06/29 22:18:31;;;;;;;6.38;5.72;;;16.50;99.90;;;17.62;100.00;100026.59;6287981;22;20087;-90
2021/06/29 22:21:03;;;;;;;9.57;6.40;;;16.50;99.90;;;17.62;100.00;100027.41;6289575;22;20008;-87